Time;durP1;ratioP1;P1;durP2;ratioP2;P2;SDS_P1;SDS_P2;PMS_P1;PMS_P2;Temp;Humidity;BMP_temperature;BMP_pressure;BME280_temperature;BME280_humidity;BME280_pressure;Samples;Min_cycle;Max_cycle;Signal;HPM_P1;HPM_P2
2021/04/12 00:00:06;;;;;;;22.83;13.82;;;308.00;1792.00;;;;;;5134783;27;20019;-70
2021/04/12 00:02:59;;;;;;;21.33;15.07;;;308.00;1766.40;;;;;;5135671;27;20344;-74
2021/04/12 00:06:04;;;;;;;22.23;14.87;;;308.00;1766.40;;;;;;5135042;27;20463;-74
2021/04/12 00:08:50;;;;;;;23.33;13.15;;;308.00;1766.40;;;;;;5032450;28;20584;-75
2021/04/12 00:11:43;;;;;;;22.35;13.30;;;308.00;1740.80;;;;;;5032422;28;20369;-74
2021/04/12 00:14:29;;;;;;;21.63;13.38;;;308.00;1740.80;;;;;;5032385;28;20474;-71
2021/04/12 00:17:06;;;;;;;18.42;13.85;;;308.00;1740.80;;;;;;5032502;28;20381;-74
2021/04/12 00:19:42;;;;;;;20.27;14.25;;;307.90;1740.80;;;;;;5032211;28;20410;-72
2021/04/12 00:22:25;;;;;;;23.10;14.63;;;307.90;1740.80;;;;;;5032937;28;20424;-73
2021/04/12 00:25:09;;;;;;;19.88;13.68;;;307.90;1740.80;;;;;;5032273;28;20462;-71
2021/04/12 00:27:40;;;;;;;22.60;14.23;;;307.90;1740.80;;;;;;5032053;28;20385;-74
2021/04/12 00:30:17;;;;;;;24.88;15.20;;;307.70;1766.40;;;;;;5032040;28;20498;-74
2021/04/12 00:33:03;;;;;;;19.85;14.57;;;307.80;1766.40;;;;;;5032300;28;20373;-73
2021/04/12 00:35:55;;;;;;;21.35;15.00;;;307.70;1766.40;;;;;;5031641;28;20487;-71
2021/04/12 00:39:05;;;;;;;23.90;14.43;;;307.70;1766.40;;;;;;5031778;28;20441;-71
2021/04/12 00:41:45;;;;;;;21.65;14.45;;;307.60;1766.40;;;;;;5019463;28;20393;-70
2021/04/12 00:44:27;;;;;;;24.27;15.40;;;307.60;1766.40;;;;;;5066800;28;20387;-75
2021/04/12 00:47:22;;;;;;;27.10;15.45;;;307.50;1766.40;;;;;;5114878;28;20375;-73
2021/04/12 00:50:14;;;;;;;26.25;14.75;;;307.40;1766.40;;;;;;5113903;28;20407;-74
2021/04/12 00:53:21;;;;;;;22.08;13.73;;;307.40;1766.40;;;;;;5114571;28;20521;-74
2021/04/12 00:56:10;;;;;;;21.90;14.18;;;307.40;1792.00;;;;;;5114432;28;20526;-74
2021/04/12 00:59:04;;;;;;;23.17;14.30;;;307.40;1766.40;;;;;;5114159;28;20399;-74
2021/04/12 01:01:36;;;;;;;19.85;13.85;;;307.30;1792.00;;;;;;5114325;28;20408;-75
2021/04/12 01:04:21;;;;;;;23.25;14.77;;;307.20;1792.00;;;;;;5114801;28;20348;-74
2021/04/12 01:07:23;;;;;;;29.17;14.35;;;307.20;1792.00;;;;;;5114253;28;20468;-72
2021/04/12 01:10:10;;;;;;;21.52;14.30;;;282.50;1792.00;;;;;;5114040;28;20382;-74
2021/04/12 01:13:03;;;;;;;25.02;13.60;;;282.40;1766.40;;;;;;5113824;28;20368;-76
2021/04/12 01:15:47;;;;;;;21.27;13.50;;;282.30;1792.00;;;;;;5113888;28;20410;-73
2021/04/12 01:18:41;;;;;;;19.75;13.77;;;282.30;1792.00;;;;;;5114123;28;20360;-75
2021/04/12 01:21:31;;;;;;;20.13;13.53;;;282.40;1792.00;;;;;;5114117;28;20402;-75
2021/04/12 01:24:16;;;;;;;19.88;13.77;;;282.30;1792.00;;;;;;5113741;28;20633;-75
2021/04/12 01:27:10;;;;;;;18.80;13.60;;;282.30;1817.60;;;;;;5113639;28;20337;-72
2021/04/12 01:30:10;;;;;;;21.73;14.43;;;282.30;1817.60;;;;;;5113983;28;20359;-76
2021/04/12 01:33:00;;;;;;;19.90;12.75;;;282.30;1792.00;;;;;;5113682;28;20527;-75
2021/04/12 01:36:03;;;;;;;20.23;14.10;;;282.40;1792.00;;;;;;5118416;28;20375;-74
2021/04/12 01:38:38;;;;;;;19.60;13.55;;;282.40;1792.00;;;;;;5134068;28;20355;-75
2021/04/12 01:41:10;;;;;;;19.75;13.30;;;282.30;1817.60;;;;;;5134112;28;20402;-75
2021/04/12 01:43:57;;;;;;;21.40;13.57;;;282.20;1817.60;;;;;;5134347;27;20341;-75
2021/04/12 01:47:01;;;;;;;20.80;13.13;;;282.30;1817.60;;;;;;5134374;28;20332;-73
2021/04/12 01:49:45;;;;;;;21.73;14.02;;;282.20;1817.60;;;;;;5116387;28;20502;-74
2021/04/12 01:52:38;;;;;;;19.95;13.65;;;282.20;1843.20;;;;;;5134284;28;20528;-75
2021/04/12 01:55:32;;;;;;;22.77;14.73;;;282.20;1817.60;;;;;;5133876;28;20366;-75
2021/04/12 01:58:17;;;;;;;26.80;15.35;;;282.30;1817.60;;;;;;5133979;28;20367;-75
2021/04/12 02:01:07;;;;;;;23.27;15.80;;;282.40;1817.60;;;;;;5134572;28;20397;-74
2021/04/12 02:03:56;;;;;;;26.83;15.35;;;282.40;1792.00;;;;;;5133925;28;20180;-75
2021/04/12 02:06:28;;;;;;;23.83;14.98;;;282.40;1817.60;;;;;;5084261;28;20387;-74
2021/04/12 02:09:26;;;;;;;26.63;15.55;;;282.40;1817.60;;;;;;5134430;28;20033;-75
2021/04/12 02:12:33;;;;;;;27.40;15.30;;;282.30;1817.60;;;;;;5134189;28;20452;-72
2021/04/12 02:15:42;;;;;;;26.20;15.40;;;282.30;1817.60;;;;;;5043062;28;20381;-74
2021/04/12 02:18:35;;;;;;;26.00;16.02;;;282.30;1817.60;;;;;;5134371;28;20406;-73
2021/04/12 02:21:39;;;;;;;23.48;15.35;;;282.20;1817.60;;;;;;5133832;28;20383;-76
2021/04/12 02:24:33;;;;;;;22.40;14.93;;;282.20;1843.20;;;;;;5138283;27;20333;-73
2021/04/12 02:27:24;;;;;;;26.15;15.82;;;282.00;1843.20;;;;;;5137702;27;20379;-74
2021/04/12 02:30:05;;;;;;;26.60;16.52;;;282.00;1868.80;;;;;;5137795;27;20350;-74
2021/04/12 02:33:06;;;;;;;28.15;17.45;;;281.90;1868.80;;;;;;5138247;27;20328;-70
2021/04/12 02:35:38;;;;;;;35.10;20.92;;;281.80;1920.00;;;;;;5137131;27;20367;-73
2021/04/12 02:38:17;;;;;;;52.03;28.88;;;281.70;1920.00;;;;;;5137309;27;20421;-74
2021/04/12 02:41:01;;;;;;;59.75;32.35;;;281.60;1920.00;;;;;;5137322;27;20348;-74
2021/04/12 02:44:06;;;;;;;56.65;33.72;;;256.80;1920.00;;;;;;5137297;27;20390;-73
2021/04/12 02:46:51;;;;;;;56.85;30.02;;;256.60;1945.60;;;;;;5133186;27;20375;-74
2021/04/12 02:49:40;;;;;;;39.28;23.13;;;256.60;1945.60;;;;;;5137512;27;20398;-72
2021/04/12 02:52:30;;;;;;;57.38;23.85;;;256.50;1945.60;;;;;;5137068;27;20360;-74
2021/04/12 02:55:24;;;;;;;30.33;19.15;;;256.60;1945.60;;;;;;5137046;27;20416;-73
2021/04/12 02:58:27;;;;;;;26.42;18.83;;;256.60;1945.60;;;;;;5118674;27;20388;-73
2021/04/12 03:01:01;;;;;;;29.73;18.42;;;256.60;1945.60;;;;;;5137539;27;20437;-74
2021/04/12 03:03:41;;;;;;;26.60;18.40;;;256.60;1920.00;;;;;;5136803;27;20472;-74
2021/04/12 03:06:38;;;;;;;31.58;19.80;;;256.60;1920.00;;;;;;5136876;27;20344;-73
2021/04/12 03:09:31;;;;;;;35.10;21.60;;;256.70;1920.00;;;;;;5137156;27;20015;-74
2021/04/12 03:12:21;;;;;;;28.02;20.02;;;256.60;1920.00;;;;;;5137061;27;20359;-72
2021/04/12 03:15:24;;;;;;;30.95;20.77;;;256.60;1920.00;;;;;;5136750;27;20431;-74
2021/04/12 03:18:07;;;;;;;29.80;19.90;;;256.70;1920.00;;;;;;5106088;27;20383;-73
2021/04/12 03:20:58;;;;;;;36.38;22.52;;;256.60;1920.00;;;;;;5136603;27;20434;-72
2021/04/12 03:23:41;;;;;;;30.35;20.95;;;256.70;1920.00;;;;;;5136462;27;20367;-73
2021/04/12 03:26:20;;;;;;;33.30;22.70;;;256.60;1920.00;;;;;;5136494;27;20441;-73
2021/04/12 03:29:08;;;;;;;33.38;22.45;;;256.60;1920.00;;;;;;5136397;27;20019;-70
2021/04/12 03:31:45;;;;;;;36.20;23.88;;;256.60;1920.00;;;;;;5136344;27;20348;-73
2021/04/12 03:34:38;;;;;;;32.92;22.95;;;256.50;1920.00;;;;;;5136197;27;20425;-72
2021/04/12 03:37:31;;;;;;;34.75;22.80;;;256.50;1920.00;;;;;;5136029;27;20368;-75
2021/04/12 03:40:08;;;;;;;38.13;22.07;;;256.50;1920.00;;;;;;5136327;27;20455;-74
2021/04/12 03:42:52;;;;;;;42.15;23.08;;;256.50;1920.00;;;;;;5136100;27;20640;-73
2021/04/12 03:45:30;;;;;;;45.00;23.00;;;256.50;1894.40;;;;;;5136182;27;20414;-73
2021/04/12 03:48:17;;;;;;;44.78;24.23;;;256.50;1920.00;;;;;;5136657;27;20447;-73
2021/04/12 03:51:01;;;;;;;44.45;23.35;;;256.40;1920.00;;;;;;5136354;27;20368;-73
2021/04/12 03:53:42;;;;;;;;;;;256.40;1894.40;;;;;;5117906;27;20418;-72
2021/04/12 03:56:46;;;;;;;36.97;21.17;;;256.50;1894.40;;;;;;5081658;22;20265;-70
2021/04/12 03:59:22;;;;;;;37.03;23.27;;;256.40;1894.40;;;;;;5034844;28;20344;-70
2021/04/12 04:02:25;;;;;;;36.08;21.83;;;256.30;1894.40;;;;;;5033515;28;20378;-71
2021/04/12 04:05:20;;;;;;;39.28;21.88;;;256.30;1894.40;;;;;;5033624;28;20541;-70
2021/04/12 04:08:09;;;;;;;32.67;20.73;;;256.30;1868.80;;;;;;5035307;28;20345;-70
2021/04/12 04:10:40;;;;;;;32.20;19.55;;;256.40;1843.20;;;;;;5035041;28;20343;-70
2021/04/12 04:13:21;;;;;;;33.67;19.15;;;256.50;1817.60;;;;;;5034773;28;20358;-70
2021/04/12 04:16:20;;;;;;;28.75;18.45;;;256.50;1792.00;;;;;;5034477;28;20420;-70
2021/04/12 04:19:32;;;;;;;33.08;18.42;;;256.60;1766.40;;;;;;5034499;28;20413;-70
2021/04/12 04:22:35;;;;;;;26.02;15.85;;;256.70;1766.40;;;;;;5034407;28;20401;-70
2021/04/12 04:25:43;;;;;;;29.27;16.25;;;256.80;1740.80;;;;;;5034672;28;20409;-70
2021/04/12 04:28:34;;;;;;;29.58;16.10;;;256.80;1740.80;;;;;;5034384;28;20405;-70
2021/04/12 04:31:27;;;;;;;22.90;15.18;;;256.80;1740.80;;;;;;5034596;28;20036;-70
2021/04/12 04:34:06;;;;;;;25.55;16.30;;;256.90;1740.80;;;;;;5034332;28;20462;-70
2021/04/12 04:36:32;;;;;;;26.73;16.38;;;256.90;1740.80;;;;;;5034388;28;20380;-70
2021/04/12 04:39:10;;;;;;;29.35;15.75;;;256.90;1740.80;;;;;;5034143;28;20417;-70
2021/04/12 04:41:47;;;;;;;26.65;16.10;;;256.90;1740.80;;;;;;5034419;28;20470;-70
2021/04/12 04:44:32;;;;;;;26.48;15.75;;;281.60;1766.40;;;;;;5034630;28;20385;-71
2021/04/12 04:47:30;;;;;;;30.65;16.73;;;281.70;1740.80;;;;;;5033737;28;20370;-70
2021/04/12 04:50:16;;;;;;;24.98;15.40;;;281.90;1740.80;;;;;;4993028;28;20442;-70
2021/04/12 04:53:06;;;;;;;26.30;17.50;;;282.00;1715.20;;;;;;4976934;28;20423;-70
2021/04/12 04:56:02;;;;;;;31.25;18.92;;;282.00;1740.80;;;;;;4992153;28;20431;-70
2021/04/12 04:58:46;;;;;;;26.83;17.00;;;282.10;1715.20;;;;;;4992486;28;20362;-71
2021/04/12 05:01:30;;;;;;;31.95;18.63;;;282.20;1715.20;;;;;;4992731;28;20371;-70
2021/04/12 05:04:11;;;;;;;30.40;17.88;;;282.30;1715.20;;;;;;4992361;28;20442;-71
2021/04/12 05:07:20;;;;;;;27.30;17.30;;;282.30;1689.60;;;;;;4992462;28;20402;-70
2021/04/12 05:09:54;;;;;;;30.58;17.67;;;282.40;1715.20;;;;;;4992301;28;20434;-70
2021/04/12 05:12:31;;;;;;;29.00;17.52;;;282.40;1740.80;;;;;;4992281;28;20400;-70
2021/04/12 05:15:09;;;;;;;39.13;20.65;;;282.50;1715.20;;;;;;4992562;28;20451;-70
2021/04/12 05:17:54;;;;;;;34.08;18.85;;;282.50;1715.20;;;;;;4992284;28;20450;-70
2021/04/12 05:20:48;;;;;;;32.53;17.38;;;307.20;1740.80;;;;;;4992102;28;20122;-71
2021/04/12 05:23:17;;;;;;;;;;;307.20;1715.20;;;;;;4992876;28;20402;-72
2021/04/12 05:26:18;;;;;;;75.55;38.08;;;307.40;1689.60;;;;;;5016260;28;20250;-71
2021/04/12 05:29:09;;;;;;;82.35;43.60;;;307.50;1689.60;;;;;;5033722;28;20354;-71
2021/04/12 05:32:08;;;;;;;67.28;34.20;;;307.50;1689.60;;;;;;5033659;28;20412;-72
2021/04/12 05:34:58;;;;;;;53.67;30.00;;;307.60;1689.60;;;;;;5033658;28;20073;-72
2021/04/12 05:38:07;;;;;;;45.45;26.38;;;307.70;1664.00;;;;;;5033942;28;20538;-70
2021/04/12 05:40:59;;;;;;;37.35;22.25;;;307.70;1689.60;;;;;;5033237;28;20414;-70
2021/04/12 05:44:09;;;;;;;33.28;19.85;;;307.80;1689.60;;;;;;5033288;28;20389;-69
2021/04/12 05:47:00;;;;;;;31.02;18.40;;;308.00;1689.60;;;;;;5033218;28;20470;-71
2021/04/12 05:49:37;;;;;;;31.00;16.23;;;308.10;1689.60;;;;;;5033331;28;20370;-71
2021/04/12 05:52:42;;;;;;;22.65;13.55;;;332.80;1689.60;;;;;;5033538;28;20331;-70
2021/04/12 05:55:24;;;;;;;24.45;12.18;;;333.00;1689.60;;;;;;5035706;28;20354;-71
2021/04/12 05:58:02;;;;;;;20.20;12.38;;;333.10;1689.60;;;;;;5054941;28;20439;-71
2021/04/12 06:00:40;;;;;;;20.52;12.30;;;333.20;1664.00;;;;;;5057734;28;20482;-70
2021/04/12 06:03:27;;;;;;;25.20;12.75;;;333.30;1689.60;;;;;;5057135;28;20461;-71
2021/04/12 06:06:47;;;;;;;18.30;11.15;;;333.40;1689.60;;;;;;5056911;28;20475;-70
2021/04/12 06:09:44;;;;;;;17.27;10.82;;;333.50;1689.60;;;;;;4995476;28;20415;-70
2021/04/12 06:12:49;;;;;;;17.67;10.90;;;333.60;1664.00;;;;;;4995522;28;20455;-70
2021/04/12 06:15:35;;;;;;;17.50;11.02;;;358.40;1689.60;;;;;;4995383;28;20587;-70
2021/04/12 06:18:41;;;;;;;18.83;11.43;;;358.40;1689.60;;;;;;4995519;28;20399;-70
2021/04/12 06:21:24;;;;;;;23.98;12.30;;;358.60;1664.00;;;;;;4995292;28;20407;-70
2021/04/12 06:24:05;;;;;;;22.37;13.37;;;359.00;1612.80;;;;;;4995417;28;20367;-68
2021/04/12 06:26:56;;;;;;;36.40;15.82;;;384.10;1587.20;;;;;;4995191;28;20629;-68
2021/04/12 06:29:33;;;;;;;31.92;16.33;;;435.80;1433.60;;;;;;4995739;28;20352;-71
2021/04/12 06:32:26;;;;;;;34.28;18.30;;;537.80;1177.60;;;;;;4994956;28;20511;-70
2021/04/12 06:35:07;;;;;;;34.65;18.77;;;614.80;972.80;;;;;;4994955;28;20415;-70
2021/04/12 06:38:00;;;;;;;35.00;16.83;;;615.10;921.60;;;;;;4995214;28;20431;-71
2021/04/12 06:40:49;;;;;;;29.55;15.77;;;615.30;896.00;;;;;;4994984;28;20418;-71
2021/04/12 06:43:40;;;;;;;17.20;11.18;;;691.60;819.20;;;;;;5026284;28;20350;-70
2021/04/12 06:46:06;;;;;;;18.42;11.10;;;742.50;768.00;;;;;;5056184;28;20021;-71
2021/04/12 06:48:47;;;;;;;16.95;11.00;;;717.60;768.00;;;;;;5056144;28;20074;-71
2021/04/12 06:52:00;;;;;;;17.05;11.05;;;666.30;793.60;;;;;;5056535;28;20390;-71
2021/04/12 06:55:04;;;;;;;16.90;11.50;;;614.90;896.00;;;;;;5029287;28;20397;-70
2021/04/12 06:58:07;;;;;;;17.40;11.25;;;589.30;972.80;;;;;;5055932;28;20377;-71
2021/04/12 07:00:58;;;;;;;21.63;11.07;;;563.80;1024.00;;;;;;5056154;28;20373;-70
2021/04/12 07:04:01;;;;;;;15.85;11.00;;;563.30;1049.60;;;;;;5056364;28;20358;-70
2021/04/12 07:06:44;;;;;;;19.40;11.65;;;538.40;1075.20;;;;;;5056129;28;20346;-70
2021/04/12 07:09:40;;;;;;;23.42;12.32;;;538.10;1100.80;;;;;;5055427;28;20343;-70
2021/04/12 07:12:57;;;;;;;24.65;12.27;;;538.00;1075.20;;;;;;5055996;28;20461;-69
2021/04/12 07:15:41;;;;;;;20.35;11.18;;;537.90;1100.80;;;;;;5056174;28;20390;-71
2021/04/12 07:18:22;;;;;;;13.63;7.97;;;537.80;1100.80;;;;;;5055888;28;20516;-70
2021/04/12 07:21:27;;;;;;;11.52;7.68;;;537.70;1100.80;;;;;;5055886;28;20424;-70
2021/04/12 07:24:17;;;;;;;14.02;8.45;;;537.70;1075.20;;;;;;5024626;28;20449;-71
2021/04/12 07:27:13;;;;;;;14.95;8.57;;;537.80;1100.80;;;;;;5056169;28;20349;-70
2021/04/12 07:30:13;;;;;;;15.27;10.00;;;538.00;1100.80;;;;;;5055795;28;20517;-69
2021/04/12 07:32:57;;;;;;;19.38;7.70;;;538.10;1126.40;;;;;;5055350;28;20392;-70
2021/04/12 07:35:35;;;;;;;13.57;6.30;;;538.30;998.40;;;;;;5055619;28;20413;-70
2021/04/12 07:38:10;;;;;;;14.13;6.93;;;537.90;1049.60;;;;;;5055321;28;20549;-71
2021/04/12 07:40:55;;;;;;;11.80;5.68;;;537.70;1075.20;;;;;;5055466;28;20339;-69
2021/04/12 07:43:49;;;;;;;13.43;6.93;;;512.80;1024.00;;;;;;5055741;28;20385;-69
2021/04/12 07:46:36;;;;;;;20.00;10.27;;;512.40;1049.60;;;;;;5037139;28;20377;-69
2021/04/12 07:49:40;;;;;;;12.02;6.53;;;512.10;1075.20;;;;;;5055337;28;20453;-70
2021/04/12 07:52:42;;;;;;;14.05;7.28;;;487.10;1075.20;;;;;;5055055;28;20420;-69
2021/04/12 07:55:36;;;;;;;19.52;10.10;;;486.90;1100.80;;;;;;5054899;28;20408;-69
2021/04/12 07:58:31;;;;;;;30.73;20.83;;;486.80;1126.40;;;;;;5055276;28;20415;-69
2021/04/12 08:01:16;;;;;;;25.58;15.23;;;486.70;1126.40;;;;;;5054615;28;20377;-69
2021/04/12 08:04:16;;;;;;;15.20;8.93;;;486.50;1152.00;;;;;;5054798;28;20378;-71
2021/04/12 08:07:00;;;;;;;12.50;7.65;;;486.50;1152.00;;;;;;5054892;28;20111;-70
2021/04/12 08:09:41;;;;;;;16.48;8.27;;;486.50;1126.40;;;;;;5054822;28;20424;-70
2021/04/12 08:12:19;;;;;;;16.95;7.25;;;486.50;1177.60;;;;;;5055234;28;20404;-69
2021/04/12 08:15:22;;;;;;;11.65;5.80;;;486.50;1126.40;;;;;;5054921;28;20473;-68
2021/04/12 08:18:06;;;;;;;13.80;5.35;;;486.50;1126.40;;;;;;5054661;28;20361;-70
2021/04/12 08:21:18;;;;;;;10.13;6.25;;;486.50;1075.20;;;;;;5053531;28;20021;-69
2021/04/12 08:24:11;;;;;;;10.73;5.70;;;486.50;1100.80;;;;;;5054721;28;20449;-70
2021/04/12 08:27:11;;;;;;;14.95;6.43;;;486.50;1075.20;;;;;;5054546;28;20458;-68
2021/04/12 08:29:45;;;;;;;17.88;7.40;;;486.50;1049.60;;;;;;5054604;28;20400;-68
2021/04/12 08:32:30;;;;;;;18.38;8.30;;;486.70;1075.20;;;;;;5054497;28;20361;-69
2021/04/12 08:35:33;;;;;;;14.40;6.30;;;486.80;1075.20;;;;;;5054124;28;20351;-68
2021/04/12 08:38:43;;;;;;;11.25;4.80;;;486.80;1075.20;;;;;;5036304;28;20400;-69
2021/04/12 08:41:34;;;;;;;15.05;4.45;;;486.90;1024.00;;;;;;5053992;28;20412;-69
2021/04/12 08:44:11;;;;;;;14.15;4.35;;;487.10;1024.00;;;;;;5054307;28;20517;-71
2021/04/12 08:46:59;;;;;;;10.85;4.72;;;487.20;972.80;;;;;;5054509;28;20392;-68
2021/04/12 08:49:59;;;;;;;15.45;5.03;;;487.30;921.60;;;;;;5054427;28;20430;-70
2021/04/12 08:52:56;;;;;;;22.63;6.88;;;512.10;947.20;;;;;;5053963;28;20453;-69
2021/04/12 08:55:28;;;;;;;22.08;6.40;;;512.20;947.20;;;;;;5035916;28;20413;-71
2021/04/12 08:58:36;;;;;;;18.65;6.95;;;512.20;947.20;;;;;;5054031;28;20310;-70
2021/04/12 09:01:20;;;;;;;15.52;5.88;;;512.40;947.20;;;;;;5053644;28;20342;-69
2021/04/12 09:04:05;;;;;;;12.20;4.30;;;512.60;921.60;;;;;;5053625;28;20418;-70
2021/04/12 09:07:42;;;;;;;20.83;6.15;;;512.70;947.20;;;;;;5054234;28;20374;-71
2021/04/12 09:10:32;;;;;;;27.90;6.63;;;512.70;921.60;;;;;;4992427;28;20378;-72
2021/04/12 09:13:26;;;;;;;13.05;4.53;;;512.90;921.60;;;;;;4992315;28;20414;-70
2021/04/12 09:16:35;;;;;;;12.57;4.85;;;512.90;896.00;;;;;;4992674;28;20442;-72
2021/04/12 09:19:44;;;;;;;53.10;9.00;;;512.90;870.40;;;;;;4915535;29;20394;-74
2021/04/12 09:22:41;;;;;;;10.88;3.75;;;537.70;896.00;;;;;;4915945;29;20402;-70
2021/04/12 09:25:38;;;;;;;52.75;10.10;;;537.80;921.60;;;;;;4915493;29;20414;-70
2021/04/12 09:28:22;;;;;;;16.42;4.28;;;538.00;947.20;;;;;;4915431;29;20487;-70
2021/04/12 09:31:06;;;;;;;23.48;6.18;;;538.10;896.00;;;;;;4915264;29;20417;-69
2021/04/12 09:34:09;;;;;;;15.13;4.40;;;538.20;896.00;;;;;;4915694;29;20382;-76
2021/04/12 09:37:08;;;;;;;14.57;5.38;;;538.30;870.40;;;;;;4915216;29;20612;-70
2021/04/12 09:39:52;;;;;;;12.02;4.47;;;538.30;896.00;;;;;;4915321;29;20398;-79
2021/04/12 09:42:45;;;;;;;9.20;3.15;;;538.40;844.80;;;;;;4953896;29;20027;-77
2021/04/12 09:45:48;;;;;;;10.35;3.97;;;563.20;896.00;;;;;;4937388;29;20481;-71
2021/04/12 09:48:32;;;;;;;7.93;3.80;;;563.30;844.80;;;;;;4937337;29;20027;-72
2021/04/12 09:51:30;;;;;;;8.77;3.63;;;563.30;870.40;;;;;;4953299;29;20368;-67
2021/04/12 09:54:17;;;;;;;8.07;3.00;;;538.50;844.80;;;;;;4963067;28;20365;-69
2021/04/12 09:56:55;;;;;;;11.50;3.88;;;538.20;870.40;;;;;;5053008;28;20381;-81
2021/04/12 09:59:49;;;;;;;13.75;4.10;;;538.20;896.00;;;;;;5053509;28;20369;-72
2021/04/12 10:02:43;;;;;;;10.13;3.45;;;538.10;870.40;;;;;;5053546;28;20374;-74
2021/04/12 10:05:27;;;;;;;;;;;537.90;844.80;;;;;;5053658;28;20346;-76
2021/04/12 10:08:05;;;;;;;11.25;3.33;;;537.80;870.40;;;;;;5053247;28;20261;-82
2021/04/12 10:10:58;;;;;;;10.57;3.75;;;537.80;870.40;;;;;;5053207;28;20365;-82
2021/04/12 10:13:41;;;;;;;13.67;6.13;;;537.80;896.00;;;;;;5053009;28;20437;-78
2021/04/12 10:16:36;;;;;;;11.93;4.40;;;537.90;896.00;;;;;;5053088;28;20532;-71
2021/04/12 10:19:12;;;;;;;39.42;10.25;;;537.90;870.40;;;;;;5051325;28;20040;-69
2021/04/12 10:21:59;;;;;;;11.18;4.05;;;538.00;896.00;;;;;;5053306;28;20353;-77
2021/04/12 10:25:00;;;;;;;13.98;6.03;;;538.20;844.80;;;;;;5053953;28;20448;-79
2021/04/12 10:27:49;;;;;;;16.75;3.42;;;538.40;896.00;;;;;;5053115;28;20369;-71
2021/04/12 10:30:29;;;;;;;12.13;4.00;;;538.50;844.80;;;;;;5052959;28;20412;-76
2021/04/12 10:33:07;;;;;;;14.13;4.63;;;563.20;896.00;;;;;;5052886;28;20369;-77
2021/04/12 10:36:00;;;;;;;12.57;6.03;;;563.40;844.80;;;;;;5052933;28;20357;-74
2021/04/12 10:38:28;;;;;;;7.95;3.05;;;563.50;844.80;;;;;;5052916;28;20421;-79
2021/04/12 10:41:13;;;;;;;11.70;3.38;;;563.60;819.20;;;;;;5053163;28;20368;-79
2021/04/12 10:44:01;;;;;;;12.48;3.85;;;563.50;844.80;;;;;;5036526;28;20381;-80
2021/04/12 10:46:49;;;;;;;15.00;4.75;;;563.50;844.80;;;;;;5038629;28;20365;-78
2021/04/12 10:49:24;;;;;;;18.67;3.90;;;563.50;870.40;;;;;;5038841;28;20412;-77
2021/04/12 10:52:12;;;;;;;10.90;3.03;;;563.50;870.40;;;;;;5056440;28;20042;-73
2021/04/12 10:54:49;;;;;;;11.60;2.90;;;563.60;819.20;;;;;;5056060;28;20109;-73
2021/04/12 10:57:23;;;;;;;10.25;3.22;;;563.70;819.20;;;;;;5055734;28;20389;-71
2021/04/12 11:00:04;;;;;;;18.90;5.53;;;563.80;793.60;;;;;;5056444;28;20358;-70
2021/04/12 11:02:33;;;;;;;6.88;2.60;;;563.90;768.00;;;;;;5055816;28;20430;-70
2021/04/12 11:05:10;;;;;;;9.88;3.17;;;564.00;768.00;;;;;;5056351;28;20357;-70
2021/04/12 11:08:09;;;;;;;14.73;3.40;;;564.10;793.60;;;;;;5055697;28;20458;-72
2021/04/12 11:10:50;;;;;;;8.35;2.60;;;588.80;793.60;;;;;;5055947;28;20343;-73
2021/04/12 11:13:28;;;;;;;7.65;2.75;;;588.80;768.00;;;;;;5056567;28;20323;-71
2021/04/12 11:16:04;;;;;;;12.73;3.08;;;588.80;793.60;;;;;;5055440;28;20396;-70
2021/04/12 11:18:42;;;;;;;11.73;2.53;;;588.80;742.40;;;;;;5055817;28;20365;-73
2021/04/12 11:21:27;;;;;;;11.43;2.97;;;588.80;819.20;;;;;;5055698;28;20346;-71
2021/04/12 11:24:07;;;;;;;10.10;3.65;;;588.90;768.00;;;;;;5055289;28;20470;-70
2021/04/12 11:27:02;;;;;;;9.40;3.10;;;589.00;793.60;;;;;;5055948;28;20357;-69
2021/04/12 11:29:33;;;;;;;9.90;2.72;;;589.10;768.00;;;;;;5028635;28;20466;-70
2021/04/12 11:32:18;;;;;;;14.85;3.70;;;589.10;768.00;;;;;;5055591;28;20414;-71
2021/04/12 11:34:54;;;;;;;11.90;3.38;;;589.00;844.80;;;;;;5055592;28;20162;-72
2021/04/12 11:37:39;;;;;;;11.25;4.05;;;589.10;793.60;;;;;;5055142;28;20491;-70
2021/04/12 11:40:29;;;;;;;16.60;4.30;;;589.10;793.60;;;;;;5055383;28;20450;-70
2021/04/12 11:43:02;;;;;;;14.70;3.50;;;589.20;819.20;;;;;;5055168;28;20381;-71
2021/04/12 11:45:40;;;;;;;11.48;2.80;;;589.30;793.60;;;;;;5054973;28;20369;-73
2021/04/12 11:48:23;;;;;;;16.42;3.58;;;589.30;819.20;;;;;;5055743;28;20120;-70
2021/04/12 11:51:03;;;;;;;14.93;3.08;;;589.40;768.00;;;;;;5055094;28;20373;-68
2021/04/12 11:53:52;;;;;;;14.05;3.92;;;589.40;768.00;;;;;;5054971;28;20369;-68
2021/04/12 11:56:32;;;;;;;17.13;4.85;;;589.40;819.20;;;;;;5046532;28;20366;-68
2021/04/12 11:59:30;;;;;;;10.07;3.13;;;589.40;844.80;;;;;;5055194;28;20027;-69
2021/04/12 12:02:32;;;;;;;7.70;3.05;;;589.40;768.00;;;;;;5072079;22;20949;-72
2021/04/12 12:05:25;;;;;;;15.85;4.28;;;589.40;768.00;;;;;;5050431;28;20052;-69
2021/04/12 12:08:09;;;;;;;17.73;3.55;;;589.40;793.60;;;;;;5075413;28;20403;-72
2021/04/12 12:11:01;;;;;;;12.88;3.83;;;589.60;793.60;;;;;;5075084;28;20361;-72
2021/04/12 12:13:51;;;;;;;14.75;3.38;;;589.60;793.60;;;;;;5036582;28;20484;-72
2021/04/12 12:16:54;;;;;;;17.90;3.53;;;589.60;793.60;;;;;;5074403;28;20377;-71
2021/04/12 12:19:39;;;;;;;15.40;3.33;;;589.70;768.00;;;;;;4974007;28;20515;-69
2021/04/12 12:22:39;;;;;;;14.45;3.88;;;589.70;793.60;;;;;;4974050;28;20059;-70
2021/04/12 12:25:11;;;;;;;17.17;3.42;;;589.70;793.60;;;;;;4973664;28;20376;-69
2021/04/12 12:28:01;;;;;;;9.27;3.08;;;589.70;819.20;;;;;;4973669;28;20435;-71
2021/04/12 12:30:47;;;;;;;95.32;8.60;;;589.70;819.20;;;;;;4965890;28;20383;-71
2021/04/12 12:33:28;;;;;;;31.55;3.97;;;589.70;793.60;;;;;;4973739;28;20456;-73
2021/04/12 12:36:14;;;;;;;15.27;3.80;;;614.60;768.00;;;;;;4973928;28;20371;-74
2021/04/12 12:39:11;;;;;;;16.58;4.18;;;589.60;768.00;;;;;;4973522;28;20143;-70
2021/04/12 12:41:46;;;;;;;19.48;4.78;;;589.50;768.00;;;;;;4973549;28;20499;-73
2021/04/12 12:44:17;;;;;;;14.27;3.28;;;589.60;768.00;;;;;;4973854;28;20447;-72
2021/04/12 12:46:45;;;;;;;12.25;3.58;;;589.70;819.20;;;;;;4973802;28;20368;-71
2021/04/12 12:49:28;;;;;;;12.57;3.22;;;614.40;793.60;;;;;;4973597;28;20447;-72
2021/04/12 12:52:20;;;;;;;11.05;3.10;;;614.50;768.00;;;;;;4973114;28;20352;-71
2021/04/12 12:54:50;;;;;;;12.23;3.10;;;614.60;793.60;;;;;;5020319;28;20366;-72
2021/04/12 12:57:30;;;;;;;13.75;3.20;;;614.50;716.80;;;;;;5074556;28;20385;-72
2021/04/12 13:00:21;;;;;;;8.75;3.30;;;614.50;768.00;;;;;;5073789;28;20383;-77
2021/04/12 13:02:49;;;;;;;13.73;4.05;;;614.40;742.40;;;;;;5052422;28;20366;-74
2021/04/12 13:05:24;;;;;;;14.00;4.85;;;614.40;742.40;;;;;;5053768;28;20403;-71
2021/04/12 13:08:03;;;;;;;19.40;3.65;;;614.40;742.40;;;;;;5053322;28;20377;-75
2021/04/12 13:10:29;;;;;;;12.27;3.55;;;614.40;716.80;;;;;;5052503;28;20334;-70
2021/04/12 13:12:56;;;;;;;10.93;3.92;;;614.50;742.40;;;;;;5053627;28;20032;-72
2021/04/12 13:15:33;;;;;;;14.45;4.30;;;614.50;716.80;;;;;;5053805;28;20350;-70
2021/04/12 13:18:14;;;;;;;15.90;4.28;;;614.50;742.40;;;;;;5053641;28;20474;-72
2021/04/12 13:20:44;;;;;;;14.68;3.00;;;614.40;742.40;;;;;;5053531;28;20450;-71
2021/04/12 13:23:46;;;;;;;13.60;4.28;;;614.50;742.40;;;;;;5053460;28;20481;-73
2021/04/12 13:26:36;;;;;;;16.77;3.97;;;614.60;742.40;;;;;;4972797;28;20383;-70
2021/04/12 13:29:22;;;;;;;15.48;3.80;;;614.70;742.40;;;;;;4972876;28;20567;-70
2021/04/12 13:32:16;;;;;;;18.92;3.88;;;614.70;742.40;;;;;;4972939;28;20375;-70
2021/04/12 13:34:54;;;;;;;13.63;4.32;;;614.70;742.40;;;;;;4953720;28;20352;-73
2021/04/12 13:37:33;;;;;;;22.73;4.28;;;614.80;742.40;;;;;;4973024;28;20066;-71
2021/04/12 13:40:20;;;;;;;26.17;5.85;;;614.80;742.40;;;;;;4956556;28;20424;-72
2021/04/12 13:42:53;;;;;;;34.97;5.18;;;614.60;742.40;;;;;;4973168;28;20034;-69
2021/04/12 13:45:37;;;;;;;28.75;4.60;;;614.60;742.40;;;;;;4972755;28;20023;-69
2021/04/12 13:48:18;;;;;;;14.02;4.30;;;614.70;716.80;;;;;;4972574;28;20471;-71
2021/04/12 13:51:12;;;;;;;24.67;4.82;;;614.80;716.80;;;;;;4972961;28;20377;-70